Time;durP1;ratioP1;P1;durP2;ratioP2;P2;SDS_P1;SDS_P2;PMS_P1;PMS_P2;Temp;Humidity;BMP_temperature;BMP_pressure;BME280_temperature;BME280_humidity;BME280_pressure;Samples;Min_cycle;Max_cycle;Signal;HPM_P1;HPM_P2
2022/04/15 00:00:46;;;;;;;4.20;2.45;;;19.80;49.10;18.90;102002.00;;;;6180086;23;20055;-66
2022/04/15 00:03:32;;;;;;;2.70;2.15;;;19.80;49.10;18.90;102004.00;;;;6179577;23;20017;-66
2022/04/15 00:06:20;;;;;;;3.35;2.30;;;19.80;49.10;18.90;102001.00;;;;6180361;23;20140;-66
2022/04/15 00:09:06;;;;;;;3.88;2.42;;;19.80;49.10;18.90;102004.00;;;;6179822;23;20513;-66
2022/04/15 00:11:53;;;;;;;4.55;2.30;;;19.70;49.00;18.80;102003.00;;;;6177001;23;20013;-66
2022/04/15 00:14:39;;;;;;;3.88;2.58;;;19.70;49.00;18.90;102006.00;;;;6208317;23;20024;-66
2022/04/15 00:17:25;;;;;;;4.85;2.00;;;19.70;49.00;18.80;102011.00;;;;6210954;23;20024;-66
2022/04/15 00:20:11;;;;;;;2.92;2.13;;;19.70;49.00;18.80;102009.00;;;;6210852;23;20024;-66
2022/04/15 00:22:58;;;;;;;4.10;2.90;;;19.70;49.10;18.80;102005.00;;;;6211075;23;20024;-66
2022/04/15 00:25:45;;;;;;;4.33;2.47;;;19.70;49.00;18.80;102007.00;;;;6211097;23;20696;-66
2022/04/15 00:28:31;;;;;;;4.55;2.45;;;19.70;49.00;18.80;102001.00;;;;6210482;23;20239;-66
2022/04/15 00:31:18;;;;;;;5.53;2.42;;;19.70;49.00;18.80;101999.00;;;;6211326;23;20454;-66
2022/04/15 00:34:04;;;;;;;2.13;1.92;;;19.70;49.00;18.80;102003.00;;;;6209678;23;20016;-66
2022/04/15 00:36:50;;;;;;;2.30;2.10;;;19.70;49.00;18.80;102008.00;;;;6211482;23;20024;-66
2022/04/15 00:39:38;;;;;;;5.00;2.30;;;19.70;49.00;18.80;102012.00;;;;6211634;23;20027;-66
2022/04/15 00:42:24;;;;;;;4.75;2.30;;;19.70;49.00;18.80;102011.00;;;;6209784;23;20307;-66
2022/04/15 00:45:10;;;;;;;3.58;2.08;;;19.70;49.00;18.80;102019.00;;;;6209526;23;20521;-66
2022/04/15 00:47:58;;;;;;;4.47;2.25;;;19.70;49.00;18.80;102018.00;;;;6211243;23;20038;-66
2022/04/15 00:50:44;;;;;;;2.92;2.17;;;19.70;49.00;18.80;102014.00;;;;6209377;23;20016;-66
2022/04/15 00:53:31;;;;;;;3.30;2.20;;;19.60;49.00;18.80;102013.00;;;;6210122;23;20083;-66
2022/04/15 00:56:17;;;;;;;3.90;2.60;;;19.60;49.00;18.80;102013.00;;;;6190041;23;20067;-66
2022/04/15 00:59:04;;;;;;;3.90;2.65;;;19.60;49.00;18.80;102015.00;;;;6169684;23;20442;-66
2022/04/15 01:01:50;;;;;;;3.72;2.40;;;19.70;49.00;18.80;102017.00;;;;6191429;23;20019;-66
2022/04/15 01:04:36;;;;;;;3.95;2.85;;;19.60;48.90;18.80;102019.00;;;;6191034;23;20044;-66
2022/04/15 01:07:33;;;;;;;4.28;2.13;;;19.60;48.90;18.80;102023.00;;;;6210966;23;20012;-66
2022/04/15 01:10:19;;;;;;;3.03;2.20;;;19.70;48.90;18.80;102020.00;;;;6210694;23;20020;-66
2022/04/15 01:13:07;;;;;;;5.03;2.50;;;19.60;48.90;18.70;102019.00;;;;6212585;23;20039;-66
2022/04/15 01:15:55;;;;;;;3.92;2.53;;;19.60;48.90;18.70;102015.00;;;;6211149;23;20017;-66
2022/04/15 01:18:41;;;;;;;4.15;2.05;;;19.60;48.90;18.70;102023.00;;;;6209849;23;20447;-66
2022/04/15 01:21:28;;;;;;;4.20;2.58;;;19.60;48.90;18.70;102023.00;;;;6212638;23;20024;-66
2022/04/15 01:24:14;;;;;;;3.65;2.33;;;19.60;48.80;18.70;102021.00;;;;6170741;23;20074;-66
2022/04/15 01:27:00;;;;;;;2.92;1.95;;;19.60;48.80;18.70;102018.00;;;;6212639;23;20465;-66
2022/04/15 01:29:46;;;;;;;3.97;2.42;;;19.60;48.90;18.70;102029.00;;;;6171098;23;20021;-66
2022/04/15 01:32:32;;;;;;;4.10;2.53;;;19.60;48.80;18.70;102027.00;;;;6212300;23;20039;-66
2022/04/15 01:35:19;;;;;;;4.30;2.42;;;19.60;48.90;18.70;102030.00;;;;6212649;23;20027;-66
2022/04/15 01:38:07;;;;;;;3.60;2.50;;;19.60;48.90;18.70;102030.00;;;;6212865;23;20017;-66
2022/04/15 01:40:53;;;;;;;6.25;2.40;;;19.60;48.80;18.70;102023.00;;;;6190915;23;20020;-66
2022/04/15 01:43:39;;;;;;;4.30;2.15;;;19.60;48.80;18.70;102033.00;;;;6211548;23;20020;-66
2022/04/15 01:46:25;;;;;;;3.58;2.55;;;19.60;48.80;18.70;102035.00;;;;6212598;23;20013;-66
2022/04/15 01:49:11;;;;;;;4.07;2.35;;;19.60;48.70;18.70;102028.00;;;;6211548;23;20078;-66
2022/04/15 01:51:57;;;;;;;5.53;2.50;;;19.60;48.80;18.70;102036.00;;;;6212061;23;20044;-66
2022/04/15 01:54:43;;;;;;;5.05;2.40;;;19.50;48.70;18.70;102034.00;;;;6210886;23;20020;-66
2022/04/15 01:57:29;;;;;;;2.70;1.80;;;19.60;48.70;18.70;102035.00;;;;6213061;23;20024;-66
2022/04/15 02:00:16;;;;;;;2.45;1.88;;;19.60;48.70;18.70;102037.00;;;;6212362;23;20072;-67
2022/04/15 02:03:02;;;;;;;5.15;2.40;;;19.60;48.70;18.70;102040.00;;;;6213518;23;20054;-66
2022/04/15 02:05:48;;;;;;;3.03;2.05;;;19.50;48.70;18.70;102042.00;;;;6209892;23;20602;-66
2022/04/15 02:08:34;;;;;;;2.92;1.80;;;19.60;48.70;18.70;102044.00;;;;6212318;23;20019;-66
2022/04/15 02:11:20;;;;;;;3.33;2.53;;;19.50;48.60;18.60;102039.00;;;;6211955;23;20074;-66
2022/04/15 02:14:06;;;;;;;3.05;2.30;;;19.50;48.70;18.60;102037.00;;;;6189441;23;20031;-66
2022/04/15 02:16:53;;;;;;;5.53;2.38;;;19.50;48.60;18.60;102042.00;;;;6211470;23;20025;-66
2022/04/15 02:19:40;;;;;;;4.53;1.92;;;19.50;48.60;18.60;102046.00;;;;6211729;23;20096;-66
2022/04/15 02:22:26;;;;;;;3.55;2.00;;;19.50;48.60;18.60;102048.00;;;;6212632;23;20016;-66
2022/04/15 02:25:12;;;;;;;5.45;2.20;;;19.50;48.60;18.60;102054.00;;;;6211822;23;20021;-66
2022/04/15 02:27:58;;;;;;;2.90;2.53;;;19.50;48.60;18.60;102056.00;;;;6212526;23;20024;-66
2022/04/15 02:30:47;;;;;;;3.85;2.40;;;19.50;48.60;18.60;102061.00;;;;6211203;23;20012;-66
2022/04/15 02:33:33;;;;;;;2.08;1.80;;;19.50;48.50;18.60;102061.00;;;;6211178;23;20016;-66
2022/04/15 02:36:19;;;;;;;3.83;2.22;;;19.40;48.50;18.60;102062.00;;;;6210908;23;20012;-66
2022/04/15 02:39:05;;;;;;;2.28;2.00;;;19.50;48.50;18.60;102067.00;;;;6211546;23;20024;-66
2022/04/15 02:41:52;;;;;;;3.83;2.40;;;19.40;48.50;18.60;102067.00;;;;6211474;23;20009;-66
2022/04/15 02:44:38;;;;;;;4.15;2.30;;;19.50;48.50;18.60;102063.00;;;;6211739;23;20072;-66
2022/04/15 02:47:24;;;;;;;4.32;2.28;;;19.50;48.50;18.60;102069.00;;;;6212110;23;20514;-66
2022/04/15 02:50:10;;;;;;;3.53;2.33;;;19.40;48.40;18.60;102077.00;;;;6209132;23;20463;-66
2022/04/15 02:52:58;;;;;;;3.60;2.35;;;19.40;48.50;18.60;102075.00;;;;6211373;23;20019;-66
2022/04/15 02:55:44;;;;;;;3.90;2.40;;;19.40;48.50;18.60;102079.00;;;;6189789;23;20024;-66
2022/04/15 02:58:30;;;;;;;6.10;2.25;;;19.50;48.50;18.50;102072.00;;;;6210980;23;20017;-66
2022/04/15 03:01:16;;;;;;;2.00;1.80;;;19.40;48.50;18.50;102078.00;;;;6211851;23;20390;-66
2022/04/15 03:04:03;;;;;;;2.78;2.17;;;19.50;49.20;18.50;102080.00;;;;6210993;23;20023;-66
2022/04/15 03:06:49;;;;;;;3.75;2.80;;;19.40;48.50;18.50;102079.00;;;;6213575;23;20454;-66
2022/04/15 03:09:35;;;;;;;4.80;2.20;;;19.40;48.50;18.50;102086.00;;;;6211374;23;20211;-66
2022/04/15 03:12:21;;;;;;;4.70;3.35;;;19.40;48.50;18.50;102081.00;;;;6211153;23;20055;-66
2022/04/15 03:15:09;;;;;;;3.58;2.30;;;19.40;48.50;18.50;102078.00;;;;6211000;23;20430;-66
2022/04/15 03:17:55;;;;;;;;;;;19.40;48.50;18.50;102072.00;;;;6209766;23;20027;-66
2022/04/15 03:20:42;;;;;;;3.53;2.47;;;19.40;48.60;18.50;102082.00;;;;6213510;22;19915;-66
2022/04/15 03:23:29;;;;;;;3.38;2.40;;;19.50;48.50;18.50;102076.00;;;;6211509;23;20386;-66
2022/04/15 03:26:15;;;;;;;4.15;2.63;;;19.40;48.50;18.40;102074.00;;;;6212124;23;20017;-66
2022/04/15 03:29:01;;;;;;;3.67;2.55;;;19.40;48.50;18.50;102072.00;;;;6211082;23;20385;-66
2022/04/15 03:31:47;;;;;;;3.30;2.50;;;19.30;48.40;18.50;102069.00;;;;6210173;23;20012;-66
2022/04/15 03:34:33;;;;;;;4.78;2.60;;;19.30;48.50;18.50;102070.00;;;;6210959;23;20020;-66
2022/04/15 03:37:19;;;;;;;4.60;3.25;;;19.30;48.50;18.40;102075.00;;;;6211414;23;20017;-66
2022/04/15 03:40:06;;;;;;;5.00;2.80;;;19.30;48.50;18.40;102072.00;;;;6210858;23;20266;-66
2022/04/15 03:42:56;;;;;;;3.80;2.53;;;19.30;48.50;18.50;102075.00;;;;6211861;23;20024;-66
2022/04/15 03:45:42;;;;;;;4.55;2.88;;;19.40;48.60;18.40;102062.00;;;;6208826;23;20096;-66
2022/04/15 03:48:28;;;;;;;4.07;2.85;;;19.30;48.50;18.40;102070.00;;;;6211170;23;20347;-66
2022/04/15 03:51:14;;;;;;;3.83;2.85;;;19.30;48.40;18.40;102072.00;;;;6209850;23;20013;-66
2022/04/15 03:54:00;;;;;;;4.00;2.80;;;19.20;48.40;18.40;102068.00;;;;6211260;23;20047;-66
2022/04/15 03:56:46;;;;;;;2.60;2.40;;;19.30;48.50;18.40;102082.00;;;;6211278;23;20020;-66
2022/04/15 03:59:32;;;;;;;3.30;2.58;;;19.20;48.40;18.40;102086.00;;;;6211610;23;20100;-66
2022/04/15 04:02:18;;;;;;;4.30;3.05;;;19.30;48.40;18.40;102084.00;;;;6209298;23;20024;-66
2022/04/15 04:05:05;;;;;;;4.80;2.90;;;19.30;48.40;18.40;102082.00;;;;6211785;23;20016;-66
2022/04/15 04:07:51;;;;;;;4.35;2.65;;;19.30;48.50;18.40;102088.00;;;;6211323;23;20012;-66
2022/04/15 04:10:37;;;;;;;3.90;2.58;;;19.30;48.50;18.40;102091.00;;;;6211133;23;20058;-66
2022/04/15 04:13:23;;;;;;;5.72;2.78;;;19.30;48.50;18.40;102092.00;;;;6179683;23;20020;-66
2022/04/15 04:16:11;;;;;;;3.13;2.40;;;19.30;48.50;18.40;102090.00;;;;6180917;23;20025;-66
2022/04/15 04:18:57;;;;;;;5.75;2.47;;;19.30;48.50;18.40;102092.00;;;;6180175;23;20029;-66
2022/04/15 04:21:43;;;;;;;4.00;2.75;;;19.30;48.50;18.40;102097.00;;;;6180577;23;20017;-66
2022/04/15 04:24:30;;;;;;;3.20;2.53;;;19.40;48.50;18.40;102091.00;;;;6179283;23;20024;-66
2022/04/15 04:27:16;;;;;;;5.53;2.42;;;19.30;48.40;18.40;102100.00;;;;6180319;23;20092;-66
2022/04/15 04:30:03;;;;;;;4.18;2.50;;;19.20;48.40;18.40;102099.00;;;;6180718;23;20013;-66
2022/04/15 04:32:52;;;;;;;2.83;2.08;;;19.30;48.50;18.40;102101.00;;;;6179376;23;20013;-66
2022/04/15 04:35:38;;;;;;;3.95;2.60;;;19.30;48.40;18.40;102109.00;;;;6180768;23;20088;-66
2022/04/15 04:38:24;;;;;;;4.75;2.50;;;19.30;48.40;18.40;102122.00;;;;6179413;23;20342;-66
2022/04/15 04:41:10;;;;;;;2.95;2.22;;;19.30;48.40;18.40;102115.00;;;;6156940;23;20218;-66
2022/04/15 04:43:56;;;;;;;3.60;2.35;;;19.30;48.40;18.40;102117.00;;;;6180094;23;20021;-66
2022/04/15 04:46:42;;;;;;;4.28;1.95;;;19.30;48.40;18.40;102130.00;;;;6179657;23;20055;-66
2022/04/15 04:49:28;;;;;;;3.25;2.00;;;19.30;48.40;18.40;102126.00;;;;6158291;23;20028;-66
2022/04/15 04:52:14;;;;;;;5.25;2.70;;;19.30;48.40;18.40;102129.00;;;;6157364;23;20095;-66
2022/04/15 04:55:00;;;;;;;3.13;2.38;;;19.30;48.40;18.40;102132.00;;;;6179344;23;20021;-66
2022/04/15 04:57:46;;;;;;;3.95;2.28;;;19.30;48.40;18.40;102127.00;;;;6180878;23;20016;-66
2022/04/15 05:00:32;;;;;;;4.03;2.13;;;19.30;48.40;18.40;102137.00;;;;6157472;23;20021;-66
2022/04/15 05:03:18;;;;;;;4.30;2.35;;;19.40;48.50;18.40;102143.00;;;;6158242;23;20096;-66
2022/04/15 05:06:05;;;;;;;3.47;2.20;;;19.30;48.40;18.40;102147.00;;;;6180826;23;20028;-66
2022/04/15 05:08:51;;;;;;;3.50;2.10;;;19.40;48.40;18.40;102151.00;;;;6180195;23;20023;-66
2022/04/15 05:11:37;;;;;;;4.00;2.30;;;19.30;48.40;18.40;102156.00;;;;6190143;23;20017;-66
2022/04/15 05:14:23;;;;;;;2.78;2.40;;;19.30;48.30;18.40;102162.00;;;;6208081;23;20016;-66
2022/04/15 05:17:09;;;;;;;3.22;2.15;;;19.40;48.40;18.40;102167.00;;;;6209892;23;20017;-66
2022/04/15 05:19:55;;;;;;;4.18;2.28;;;19.30;48.40;18.40;102163.00;;;;6207921;23;20021;-66
2022/04/15 05:22:41;;;;;;;4.43;2.08;;;19.30;48.30;18.40;102175.00;;;;6210556;23;20021;-66
2022/04/15 05:25:27;;;;;;;2.53;1.95;;;19.40;48.40;18.40;102166.00;;;;6210119;23;20060;-66
2022/04/15 05:28:13;;;;;;;3.25;2.20;;;19.40;48.40;18.40;102183.00;;;;6209260;23;20012;-66
2022/04/15 05:30:59;;;;;;;2.10;1.90;;;19.40;48.40;18.40;102172.00;;;;6210274;23;20009;-66
2022/04/15 05:33:45;;;;;;;3.00;2.20;;;19.30;48.30;18.40;102176.00;;;;6209896;23;20012;-66
2022/04/15 05:36:32;;;;;;;6.38;2.13;;;19.30;48.30;18.40;102180.00;;;;6210078;23;20016;-66
2022/04/15 05:39:19;;;;;;;3.70;2.22;;;19.30;48.40;18.40;102190.00;;;;6206198;23;20025;-66
2022/04/15 05:42:06;;;;;;;2.15;1.95;;;19.30;48.40;18.40;102176.00;;;;6209556;23;20031;-66
2022/04/15 05:44:52;;;;;;;2.70;1.75;;;19.30;48.30;18.40;102186.00;;;;6209894;23;20027;-66
2022/04/15 05:47:39;;;;;;;2.85;1.50;;;19.20;48.30;18.40;102193.00;;;;6211214;23;20016;-66
2022/04/15 05:50:25;;;;;;;3.08;2.03;;;19.30;48.40;18.40;102196.00;;;;6210685;23;20196;-66
2022/04/15 05:53:13;;;;;;;2.30;2.00;;;19.30;48.30;18.40;102197.00;;;;6209750;23;20024;-66
2022/04/15 05:55:59;;;;;;;3.90;1.80;;;19.30;48.30;18.40;102207.00;;;;6212753;23;20095;-66
2022/04/15 05:58:45;;;;;;;3.90;2.00;;;19.40;48.40;18.40;102192.00;;;;6189757;23;20407;-66
2022/04/15 06:01:31;;;;;;;4.40;1.70;;;19.30;48.40;18.30;102209.00;;;;6212630;23;20091;-66
2022/04/15 06:04:18;;;;;;;1.75;1.60;;;19.30;48.40;18.40;102202.00;;;;6210261;23;20024;-66
2022/04/15 06:07:04;;;;;;;2.58;1.67;;;19.40;48.40;18.40;102222.00;;;;6210983;23;20027;-66
2022/04/15 06:09:50;;;;;;;3.17;1.80;;;19.30;48.40;18.40;102222.00;;;;6212275;23;20043;-66
2022/04/15 06:15:51;;;;;;;2.38;1.55;;;19.30;48.40;18.30;102226.00;;;;6175128;23;20051;-66
2022/04/15 06:18:37;;;;;;;4.07;1.98;;;19.30;48.40;18.30;102233.00;;;;6209115;23;20020;-66
2022/04/15 06:21:23;;;;;;;2.28;1.60;;;19.30;48.40;18.30;102235.00;;;;6210384;23;20034;-66
2022/04/15 06:24:10;;;;;;;4.55;1.75;;;19.20;48.30;18.30;102234.00;;;;6211195;23;20016;-66
2022/04/15 06:26:56;;;;;;;2.50;1.80;;;19.20;48.30;18.30;102230.00;;;;6187611;23;20183;-66
2022/04/15 06:29:42;;;;;;;2.85;1.73;;;19.30;48.30;18.30;102238.00;;;;6211092;23;20088;-66
2022/04/15 06:32:28;;;;;;;3.25;1.45;;;19.30;48.40;18.30;102247.00;;;;6208978;23;20071;-66
2022/04/15 06:35:14;;;;;;;3.63;1.77;;;19.20;48.30;18.30;102239.00;;;;6211365;23;20343;-66
2022/04/15 06:38:00;;;;;;;4.57;1.60;;;19.20;48.30;18.30;102242.00;;;;6210048;23;20048;-66
2022/04/15 06:40:46;;;;;;;2.80;1.85;;;19.20;48.30;18.30;102256.00;;;;6208491;23;20021;-66
2022/04/15 06:43:32;;;;;;;4.15;1.63;;;19.20;48.30;18.30;102258.00;;;;6210076;23;20516;-65
2022/04/15 06:46:18;;;;;;;2.35;1.70;;;19.20;48.30;18.30;102262.00;;;;6212426;23;20017;-66
2022/04/15 06:49:04;;;;;;;2.70;1.55;;;19.20;48.40;18.30;102252.00;;;;6210892;23;20024;-66
2022/04/15 06:51:50;;;;;;;3.80;1.58;;;19.20;48.40;18.30;102256.00;;;;6210088;23;20105;-66
2022/04/15 06:54:36;;;;;;;2.78;1.60;;;19.20;48.30;18.30;102268.00;;;;6210018;23;20023;-66
2022/04/15 06:57:22;;;;;;;2.88;1.75;;;19.20;48.40;18.30;102272.00;;;;6210167;23;20048;-66
2022/04/15 07:00:11;;;;;;;4.88;1.80;;;19.20;48.40;18.30;102270.00;;;;6211581;23;20315;-66
2022/04/15 07:02:58;;;;;;;3.13;1.83;;;19.20;48.30;18.30;102271.00;;;;6190721;23;20024;-66
2022/04/15 07:05:44;;;;;;;2.33;1.52;;;19.30;48.40;18.30;102278.00;;;;6211088;23;20086;-66
2022/04/15 07:08:30;;;;;;;3.33;1.67;;;19.20;48.30;18.30;102280.00;;;;6210687;23;20013;-66
2022/04/15 07:11:16;;;;;;;2.40;1.73;;;19.20;48.30;18.30;102276.00;;;;6210789;23;20020;-66
2022/04/15 07:14:05;;;;;;;2.20;2.00;;;19.30;48.40;18.30;102287.00;;;;6209813;23;20016;-66
2022/04/15 07:16:51;;;;;;;16.55;3.30;;;19.20;48.20;18.20;102294.00;;;;6210902;23;20027;-66
2022/04/15 07:19:37;;;;;;;5.18;2.25;;;19.30;48.40;18.10;102295.00;;;;6209320;23;20017;-66
2022/04/15 07:22:23;;;;;;;5.75;2.25;;;19.20;48.20;18.10;102298.00;;;;6210970;23;20020;-66
2022/04/15 07:25:09;;;;;;;6.97;2.50;;;19.20;48.20;18.10;102297.00;;;;6209701;23;20123;-66
2022/04/15 07:27:56;;;;;;;7.88;2.58;;;19.20;48.20;18.10;102309.00;;;;6208978;23;20024;-66
2022/04/15 07:30:42;;;;;;;8.63;2.58;;;19.10;48.20;18.10;102297.00;;;;6208641;23;20016;-66
2022/04/15 07:33:28;;;;;;;7.03;2.42;;;19.10;48.30;18.10;102306.00;;;;6210579;23;20431;-66
2022/04/15 07:39:19;;;;;;;7.53;2.78;;;19.10;48.40;18.10;102304.00;;;;6209909;23;20024;-66
2022/04/15 07:42:06;;;;;;;7.57;2.58;;;19.10;48.40;18.10;102311.00;;;;6169401;23;20071;-66
2022/04/15 07:44:52;;;;;;;3.60;2.33;;;19.10;48.50;18.10;102309.00;;;;6212206;23;20343;-66
2022/04/15 07:47:38;;;;;;;4.82;2.08;;;19.10;48.60;18.10;102309.00;;;;6188070;23;20020;-66
2022/04/15 07:50:25;;;;;;;4.70;2.38;;;19.10;48.50;18.20;102310.00;;;;6210605;23;20035;-66
2022/04/15 07:53:11;;;;;;;2.70;1.88;;;19.10;48.50;18.20;102316.00;;;;6188361;23;20087;-65
2022/04/15 07:55:57;;;;;;;4.90;1.83;;;19.10;48.50;18.20;102315.00;;;;6210425;23;20021;-66
2022/04/15 07:58:43;;;;;;;2.25;1.55;;;19.10;48.40;18.20;102316.00;;;;6210359;23;20024;-66
2022/04/15 08:01:30;;;;;;;5.38;1.88;;;19.10;48.40;18.20;102315.00;;;;6211281;23;20023;-66
2022/04/15 08:04:16;;;;;;;2.42;1.70;;;19.00;48.30;18.20;102319.00;;;;6209931;23;20024;-66
2022/04/15 08:07:02;;;;;;;3.92;1.90;;;19.10;48.40;18.20;102328.00;;;;6210756;23;20016;-66
2022/04/15 08:09:48;;;;;;;2.63;1.50;;;19.10;48.40;18.20;102326.00;;;;6209380;23;20012;-66
2022/04/15 08:12:35;;;;;;;3.67;1.60;;;19.10;48.40;18.20;102336.00;;;;6207392;23;20024;-66
2022/04/15 08:15:21;;;;;;;3.78;1.60;;;19.10;48.30;18.20;102330.00;;;;6211708;23;20020;-66
2022/04/15 08:18:07;;;;;;;2.08;1.60;;;19.00;48.20;18.20;102338.00;;;;6208733;23;20032;-66
2022/04/15 08:20:55;;;;;;;5.97;1.55;;;19.10;48.30;18.20;102338.00;;;;6207262;23;20389;-66
2022/04/15 08:23:42;;;;;;;1.63;1.30;;;19.10;48.20;18.20;102345.00;;;;6209795;23;20099;-66
2022/04/15 08:26:28;;;;;;;2.40;1.55;;;19.10;48.20;18.20;102347.00;;;;6209002;23;20024;-66
2022/04/15 08:29:14;;;;;;;3.15;1.50;;;19.10;48.10;18.20;102339.00;;;;6185813;23;20469;-63
2022/04/15 08:32:01;;;;;;;2.85;1.45;;;19.10;48.10;18.20;102339.00;;;;6205847;23;20019;-64
2022/04/15 08:34:47;;;;;;;1.52;1.30;;;19.10;48.10;18.20;102344.00;;;;6210131;23;20446;-63
2022/04/15 08:37:33;;;;;;;1.67;1.30;;;19.10;48.10;18.20;102352.00;;;;6209831;23;20043;-64
2022/04/15 08:40:19;;;;;;;2.13;1.42;;;19.10;48.10;18.20;102354.00;;;;6209642;23;20039;-63
2022/04/15 08:43:07;;;;;;;2.78;1.30;;;19.10;48.10;18.20;102344.00;;;;6210074;23;20023;-63
2022/04/15 08:45:53;;;;;;;2.45;1.17;;;19.10;48.00;18.20;102350.00;;;;6211132;23;20422;-63
2022/04/15 08:48:39;;;;;;;1.58;1.10;;;19.10;48.10;18.20;102361.00;;;;6187877;23;20431;-63
2022/04/15 08:51:26;;;;;;;1.80;1.40;;;19.10;48.10;18.20;102358.00;;;;6208156;23;20017;-63
2022/04/15 08:54:13;;;;;;;2.97;1.60;;;19.10;48.20;18.20;102360.00;;;;6205020;23;20032;-63
2022/04/15 08:56:59;;;;;;;2.63;1.60;;;19.10;48.00;18.20;102363.00;;;;6209529;23;20016;-63
2022/04/15 08:59:45;;;;;;;3.90;1.73;;;19.10;48.00;18.20;102370.00;;;;6207500;23;20063;-69
2022/04/15 09:02:38;;;;;;;1.75;1.10;;;19.10;48.00;18.20;102372.00;;;;6208410;23;20024;-64
2022/04/15 09:05:28;;;;;;;3.22;1.25;;;19.10;48.00;18.20;102374.00;;;;6208003;23;20052;-63
2022/04/15 09:08:14;;;;;;;1.30;1.10;;;19.10;48.00;18.20;102383.00;;;;6206627;23;20088;-63
2022/04/15 09:11:00;;;;;;;1.90;1.50;;;19.10;47.90;18.20;102382.00;;;;6207582;23;20070;-64
2022/04/15 09:13:46;;;;;;;2.05;1.50;;;19.10;47.90;18.20;102383.00;;;;6165943;23;20012;-64
2022/04/15 09:16:40;;;;;;;2.15;1.33;;;19.10;47.90;18.20;102387.00;;;;6167000;23;20023;-64
2022/04/15 09:19:26;;;;;;;4.43;1.67;;;19.10;48.00;18.20;102402.00;;;;6207929;23;20013;-64
2022/04/15 09:22:17;;;;;;;2.25;1.30;;;19.20;48.00;18.20;102393.00;;;;6209047;23;20024;-64
2022/04/15 09:25:04;;;;;;;2.33;1.60;;;19.10;47.90;18.20;102401.00;;;;6208821;23;20027;-65
2022/04/15 09:27:57;;;;;;;2.47;1.20;;;19.10;47.90;18.20;102401.00;;;;6210123;23;20342;-64
2022/04/15 09:30:43;;;;;;;1.33;1.13;;;19.10;47.80;18.20;102396.00;;;;6211676;23;20021;-64
2022/04/15 09:33:29;;;;;;;2.63;1.30;;;19.20;47.90;18.20;102396.00;;;;6209972;23;20017;-64
2022/04/15 09:36:29;;;;;;;1.98;1.20;;;19.20;47.90;18.20;102405.00;;;;6211101;23;20050;-64
2022/04/15 09:39:15;;;;;;;1.38;1.20;;;19.10;47.80;18.20;102402.00;;;;6210551;23;20016;-64
2022/04/15 09:42:03;;;;;;;1.77;1.45;;;19.20;47.90;18.20;102400.00;;;;6209832;23;20024;-64
2022/04/15 09:44:50;;;;;;;1.55;1.20;;;19.10;47.80;18.20;102407.00;;;;6210705;23;20521;-65
2022/04/15 09:47:36;;;;;;;1.70;1.42;;;19.20;47.80;18.20;102403.00;;;;6208953;23;20127;-64
2022/04/15 09:50:23;;;;;;;1.42;1.25;;;19.20;47.80;18.20;102411.00;;;;6205733;23;20017;-64
2022/04/15 09:53:16;;;;;;;1.90;1.20;;;19.20;47.80;18.20;102398.00;;;;6208528;23;20017;-64
2022/04/15 09:56:02;;;;;;;1.88;1.27;;;19.20;47.70;18.20;102393.00;;;;6206588;23;20040;-63
2022/04/15 09:58:49;;;;;;;1.48;1.10;;;19.20;47.80;18.20;102398.00;;;;6165552;23;20074;-64
2022/04/15 10:01:40;;;;;;;2.08;1.15;;;19.20;47.80;18.20;102399.00;;;;6186951;23;20020;-64
2022/04/15 10:04:27;;;;;;;1.60;1.30;;;19.20;47.80;18.20;102410.00;;;;6207774;23;20103;-63
2022/04/15 10:07:13;;;;;;;1.25;1.15;;;19.10;47.70;18.20;102405.00;;;;6208995;23;20016;-64
2022/04/15 10:10:00;;;;;;;1.20;1.10;;;19.20;47.70;18.20;102407.00;;;;6169859;23;20370;-63
2022/04/15 10:12:46;;;;;;;3.00;1.20;;;19.20;47.70;18.20;102401.00;;;;6188934;23;20023;-64
2022/04/15 10:15:33;;;;;;;2.45;1.50;;;19.20;47.70;18.20;102404.00;;;;6190324;23;20020;-63
2022/04/15 10:18:20;;;;;;;3.43;1.57;;;19.20;47.70;18.20;102408.00;;;;6210939;23;20342;-64
2022/04/15 10:21:06;;;;;;;2.53;1.10;;;19.20;47.70;18.20;102406.00;;;;6188726;23;20027;-64
2022/04/15 10:23:52;;;;;;;1.35;1.23;;;19.20;47.60;18.20;102420.00;;;;6169197;23;20458;-64
2022/04/15 10:26:39;;;;;;;1.73;1.10;;;19.20;47.60;18.20;102410.00;;;;6210393;23;20021;-63
2022/04/15 10:29:25;;;;;;;1.30;1.20;;;19.20;47.60;18.20;102409.00;;;;6212056;23;20020;-64
2022/04/15 10:32:13;;;;;;;1.58;1.33;;;19.20;47.60;18.20;102408.00;;;;6209178;23;20354;-64
2022/04/15 10:35:00;;;;;;;2.60;1.45;;;19.20;47.60;18.20;102412.00;;;;6209355;23;20020;-64
2022/04/15 10:37:47;;;;;;;2.78;1.10;;;19.20;47.70;18.20;102414.00;;;;6208418;23;20103;-64
2022/04/15 10:40:33;;;;;;;1.83;1.05;;;19.20;47.60;18.20;102419.00;;;;6209781;23;20267;-64
2022/04/15 10:43:29;;;;;;;1.48;1.10;;;19.20;47.60;18.20;102419.00;;;;6209474;23;20070;-64
2022/04/15 10:46:15;;;;;;;2.22;1.50;;;19.20;47.60;18.20;102414.00;;;;6207539;23;20021;-64
2022/04/15 10:49:02;;;;;;;1.17;1.08;;;19.20;47.50;18.20;102427.00;;;;6205627;23;20031;-64
2022/04/15 10:51:51;;;;;;;2.08;1.23;;;19.20;47.60;18.20;102423.00;;;;6184139;23;20023;-65
2022/04/15 10:54:40;;;;;;;1.15;1.02;;;19.30;47.70;18.20;102417.00;;;;6186509;23;20354;-66
2022/04/15 10:57:40;;;;;;;1.40;0.80;;;19.10;47.50;18.20;102416.00;;;;6208256;23;20081;-65
2022/04/15 11:03:32;;;;;;;1.15;1.05;;;19.10;47.60;18.20;102419.00;;;;6209018;23;20043;-65
2022/04/15 11:06:28;;;;;;;1.98;1.08;;;19.10;47.60;18.20;102428.00;;;;6187272;23;20021;-65
2022/04/15 11:09:17;;;;;;;1.58;1.08;;;19.10;47.50;18.20;102433.00;;;;6209889;23;20048;-65
2022/04/15 11:12:04;;;;;;;1.15;0.80;;;19.20;47.60;18.20;102431.00;;;;6206905;23;20435;-65
2022/04/15 11:14:50;;;;;;;2.42;1.33;;;19.10;47.60;18.20;102434.00;;;;6207247;23;20016;-65
2022/04/15 11:17:41;;;;;;;5.88;1.20;;;19.10;47.60;18.20;102433.00;;;;6210235;23;20020;-64
2022/04/15 11:20:28;;;;;;;2.33;1.25;;;19.10;47.60;18.20;102431.00;;;;6190037;23;20024;-65
2022/04/15 11:23:14;;;;;;;4.57;1.10;;;19.10;47.50;18.20;102436.00;;;;6188503;23;20401;-65
2022/04/15 11:26:00;;;;;;;3.63;1.17;;;19.20;47.60;18.20;102435.00;;;;6207000;23;20024;-66
2022/04/15 11:28:48;;;;;;;2.22;0.90;;;19.10;47.50;18.20;102430.00;;;;6189138;23;20017;-66
2022/04/15 11:31:36;;;;;;;1.15;0.82;;;19.10;47.60;18.20;102438.00;;;;6207049;23;20023;-66
2022/04/15 11:34:22;;;;;;;1.58;0.82;;;19.10;47.50;18.20;102443.00;;;;6189365;23;20016;-66
2022/04/15 11:37:09;;;;;;;1.60;1.00;;;19.10;47.50;18.20;102437.00;;;;6209590;23;20028;-66
2022/04/15 11:39:58;;;;;;;2.58;0.75;;;19.20;47.60;18.20;102439.00;;;;6209729;23;20447;-66
2022/04/15 11:42:44;;;;;;;2.28;0.90;;;19.20;47.50;18.20;102440.00;;;;6208748;23;20016;-66
2022/04/15 11:45:34;;;;;;;1.60;0.85;;;19.10;47.50;18.20;102441.00;;;;6189767;23;20493;-66
2022/04/15 11:48:24;;;;;;;1.45;0.85;;;19.20;47.50;18.20;102432.00;;;;6189210;23;20012;-66
2022/04/15 11:51:10;;;;;;;1.23;0.70;;;19.10;47.40;18.20;102436.00;;;;6209045;23;20430;-66
2022/04/15 11:53:57;;;;;;;0.95;0.75;;;19.10;47.40;18.20;102441.00;;;;6210651;23;20012;-66
2022/04/15 11:56:44;;;;;;;1.50;1.00;;;19.20;47.50;18.20;102437.00;;;;6208755;23;20012;-66
2022/04/15 11:59:44;;;;;;;1.02;0.80;;;19.20;47.50;18.20;102426.00;;;;6208765;23;20017;-66
2022/04/15 12:02:31;;;;;;;0.95;0.85;;;19.20;47.50;18.20;102433.00;;;;6210295;23;20024;-66
2022/04/15 12:05:17;;;;;;;1.50;0.80;;;19.20;47.50;18.20;102429.00;;;;6208501;23;20226;-66
2022/04/15 12:08:05;;;;;;;1.00;0.82;;;19.20;47.50;18.20;102432.00;;;;6210219;23;20039;-66
2022/04/15 12:10:52;;;;;;;1.02;0.88;;;19.20;47.50;18.20;102440.00;;;;6187972;23;20458;-66
2022/04/15 12:13:38;;;;;;;1.00;0.80;;;19.20;47.50;18.20;102438.00;;;;6189331;23;20017;-66
2022/04/15 12:16:30;;;;;;;1.27;0.90;;;19.20;47.50;18.20;102443.00;;;;6210316;23;20245;-66
2022/04/15 12:19:16;;;;;;;1.00;0.88;;;19.20;47.60;18.20;102438.00;;;;6188965;23;20016;-66
2022/04/15 12:22:02;;;;;;;2.03;1.00;;;19.30;47.70;18.20;102436.00;;;;6187649;23;20026;-66